createdAt,value
2018-08-18T00:00:42.999Z,26.76
2018-08-18T00:02:46.889Z,26.70
2018-08-18T00:04:51.690Z,26.80
2018-08-18T00:07:00.613Z,26.75
2018-08-18T00:09:07.314Z,26.77
2018-08-18T00:11:13.173Z,26.81
2018-08-18T00:13:22.301Z,26.74
2018-08-18T00:15:26.073Z,26.55
2018-08-18T00:17:30.241Z,26.74
2018-08-18T00:19:33.966Z,26.68
2018-08-18T00:21:37.597Z,26.70
2018-08-18T00:23:49.567Z,26.62
2018-08-18T00:25:55.947Z,26.70
2018-08-18T00:28:24.457Z,26.61
2018-08-18T00:30:30.301Z,26.69
2018-08-18T00:32:34.546Z,26.76
2018-08-18T00:34:45.479Z,26.63
2018-08-18T00:36:49.842Z,26.27
2018-08-18T00:39:05.942Z,26.48
2018-08-18T00:41:18.627Z,26.40
2018-08-18T00:43:23.152Z,26.57
2018-08-18T00:45:27.208Z,26.61
2018-08-18T00:47:32.135Z,26.50
2018-08-18T00:49:35.827Z,26.39
2018-08-18T00:51:43.361Z,25.99
2018-08-18T00:53:49.032Z,26.37
2018-08-18T00:55:55.697Z,26.25
2018-08-18T00:57:59.642Z,26.39
2018-08-18T01:00:10.114Z,26.01
2018-08-18T01:02:17.120Z,26.06
2018-08-18T01:04:24.282Z,26.38
2018-08-18T01:06:36.445Z,26.02
2018-08-18T01:08:40.880Z,26.17
2018-08-18T01:10:44.488Z,25.84
2018-08-18T01:12:48.475Z,25.91
2018-08-18T01:14:53.628Z,26.11
2018-08-18T01:16:59.627Z,26.00
2018-08-18T01:19:06.277Z,26.09
2018-08-18T01:21:13.285Z,26.29
2018-08-18T01:23:19.516Z,26.08
2018-08-18T01:25:25.533Z,26.25
2018-08-18T01:27:29.792Z,26.29
2018-08-18T01:29:33.605Z,26.08
2018-08-18T01:31:41.743Z,25.97
2018-08-18T01:33:47.766Z,26.04
2018-08-18T01:35:51.678Z,26.01
2018-08-18T01:37:55.579Z,26.29
2018-08-18T01:39:59.148Z,26.26
2018-08-18T01:42:04.401Z,26.38
2018-08-18T01:44:25.864Z,26.36
2018-08-18T01:46:30.719Z,26.42
2018-08-18T01:48:35.335Z,26.50
2018-08-18T01:50:42.549Z,26.36
2018-08-18T01:52:46.942Z,26.29
2018-08-18T01:54:52.813Z,25.99
2018-08-18T01:57:03.178Z,26.09
2018-08-18T01:59:07.596Z,26.23
2018-08-18T02:01:12.952Z,26.45
2018-08-18T02:03:16.815Z,26.26
2018-08-18T02:05:20.783Z,26.45
2018-08-18T02:07:30.324Z,26.53
2018-08-18T02:09:34.533Z,26.30
2018-08-18T02:11:40.118Z,25.97
2018-08-18T02:13:47.209Z,26.29
2018-08-18T02:15:52.672Z,26.14
2018-08-18T02:17:57.207Z,26.15
2018-08-18T02:20:01.735Z,26.14
2018-08-18T02:22:08.056Z,26.09
2018-08-18T02:24:12.291Z,25.91
2018-08-18T02:26:15.853Z,25.90
2018-08-18T02:28:27.917Z,25.93
2018-08-18T02:30:31.497Z,26.11
2018-08-18T02:32:37.860Z,26.08
2018-08-18T02:34:42.040Z,25.87
2018-08-18T02:36:46.567Z,26.02
2018-08-18T02:38:58.320Z,25.82
2018-08-18T02:41:04.273Z,25.98
2018-08-18T02:43:19.016Z,25.90
2018-08-18T02:45:22.929Z,26.21
2018-08-18T02:47:26.721Z,25.99
2018-08-18T02:49:34.375Z,26.18
2018-08-18T02:51:38.088Z,26.33
2018-08-18T02:53:41.718Z,26.23
2018-08-18T02:55:45.494Z,26.52
2018-08-18T02:57:49.500Z,26.51
2018-08-18T02:59:58.747Z,26.47
2018-08-18T03:02:07.621Z,26.55
2018-08-18T03:04:13.514Z,26.63
2018-08-18T03:06:17.729Z,26.48
2018-08-18T03:08:21.902Z,26.53
2018-08-18T03:10:27.086Z,26.65
2018-08-18T03:12:49.658Z,26.71
2018-08-18T03:15:09.178Z,26.53
2018-08-18T03:17:13.818Z,26.85
2018-08-18T03:19:19.236Z,26.64
2018-08-18T03:21:33.556Z,26.82
2018-08-18T03:23:40.731Z,26.79
2018-08-18T03:25:47.599Z,26.77
2018-08-18T03:27:58.559Z,26.83
2018-08-18T03:30:07.437Z,26.78
2018-08-18T03:32:12.538Z,26.87
2018-08-18T03:34:18.616Z,26.90
2018-08-18T03:36:30.924Z,26.62
2018-08-18T03:38:34.740Z,26.70
2018-08-18T03:40:41.244Z,26.57
2018-08-18T03:42:45.269Z,26.58
2018-08-18T03:44:55.260Z,26.70
2018-08-18T03:47:03.225Z,26.51
2018-08-18T03:49:11.254Z,26.58
2018-08-18T03:51:17.950Z,26.49
2018-08-18T03:53:21.447Z,26.26
2018-08-18T03:55:36.637Z,26.31
2018-08-18T03:57:47.350Z,26.30
2018-08-18T03:59:51.254Z,26.23
2018-08-18T04:01:57.734Z,26.23
2018-08-18T04:04:03.029Z,26.10
2018-08-18T04:06:09.896Z,26.24
2018-08-18T04:08:16.413Z,26.23
2018-08-18T04:10:29.504Z,26.26
2018-08-18T04:12:46.902Z,26.28
2018-08-18T04:14:50.488Z,26.07
2018-08-18T04:16:54.024Z,26.46
2018-08-18T04:19:01.593Z,26.20
2018-08-18T04:21:09.707Z,26.52
2018-08-18T04:23:17.211Z,26.51
2018-08-18T04:25:23.361Z,26.72
2018-08-18T04:27:48.653Z,26.58
2018-08-18T04:29:52.956Z,26.21
2018-08-18T04:31:58.189Z,26.61
2018-08-18T04:34:04.257Z,26.50
2018-08-18T04:36:11.997Z,26.49
2018-08-18T04:38:18.778Z,26.45
2018-08-18T04:40:24.718Z,26.19
2018-08-18T04:42:28.613Z,26.38
2018-08-18T04:44:32.426Z,26.50
2018-08-18T04:46:37.318Z,26.49
2018-08-18T04:48:41.322Z,26.32
2018-08-18T04:50:45.068Z,26.16
2018-08-18T04:52:50.618Z,26.39
2018-08-18T04:54:54.115Z,26.36
2018-08-18T04:56:57.943Z,26.47
2018-08-18T04:59:02.377Z,26.30
2018-08-18T05:01:06.595Z,26.44
2018-08-18T05:03:11.695Z,26.08
2018-08-18T05:05:17.030Z,26.53
2018-08-18T05:07:20.700Z,26.68
2018-08-18T05:09:24.202Z,26.59
2018-08-18T05:11:28.772Z,26.68
2018-08-18T05:13:33.285Z,26.63
2018-08-18T05:15:37.028Z,26.85
2018-08-18T05:17:40.971Z,27.03
2018-08-18T05:19:52.695Z,27.08
2018-08-18T05:21:59.249Z,27.06
2018-08-18T05:24:19.551Z,26.86
2018-08-18T05:26:23.467Z,26.87
2018-08-18T05:28:27.677Z,26.42
2018-08-18T05:30:31.800Z,26.57
2018-08-18T05:32:36.708Z,26.62
2018-08-18T05:34:40.289Z,26.66
2018-08-18T05:36:44.611Z,26.60
2018-08-18T05:38:51.073Z,26.45
2018-08-18T05:40:58.546Z,26.82
2018-08-18T05:43:07.101Z,26.50
2018-08-18T05:45:22.164Z,26.74
2018-08-18T05:47:26.179Z,26.72
2018-08-18T05:49:44.804Z,26.71
2018-08-18T05:51:52.422Z,26.95
2018-08-18T05:53:59.677Z,26.79
2018-08-18T05:56:06.928Z,26.31
2018-08-18T05:58:10.983Z,26.52
2018-08-18T06:00:18.334Z,26.45
2018-08-18T06:02:22.266Z,26.44
2018-08-18T06:04:26.306Z,26.23
2018-08-18T06:06:29.892Z,26.37
2018-08-18T06:08:34.345Z,26.25
2018-08-18T06:10:41.887Z,26.19
2018-08-18T06:12:46.707Z,26.20
2018-08-18T06:14:50.657Z,26.32
2018-08-18T06:16:55.344Z,26.23
2018-08-18T06:19:04.543Z,26.44
2018-08-18T06:21:11.279Z,26.33
2018-08-18T06:23:16.841Z,26.39
2018-08-18T06:25:20.922Z,26.34
2018-08-18T06:27:29.173Z,26.33
2018-08-18T06:29:33.163Z,26.80
2018-08-18T06:31:52.343Z,26.76
2018-08-18T06:33:58.579Z,26.90
2018-08-18T06:36:05.341Z,26.59
2018-08-18T06:38:10.714Z,26.51
2018-08-18T06:40:17.486Z,26.91
2018-08-18T06:42:36.278Z,27.01
2018-08-18T06:44:42.992Z,27.02
2018-08-18T06:46:50.041Z,26.73
2018-08-18T06:49:02.938Z,27.15
2018-08-18T06:51:10.470Z,27.09
2018-08-18T06:53:21.913Z,26.91
2018-08-18T06:55:26.753Z,26.77
2018-08-18T06:57:42.818Z,26.75
2018-08-18T06:59:48.223Z,26.94
2018-08-18T07:01:52.723Z,27.00
2018-08-18T07:03:58.852Z,26.87
2018-08-18T07:06:13.079Z,27.10
2018-08-18T07:08:22.388Z,26.97
2018-08-18T07:10:36.811Z,26.47
2018-08-18T07:12:44.445Z,26.67
2018-08-18T07:14:54.722Z,26.79
2018-08-18T07:17:10.766Z,26.89
2018-08-18T07:19:23.825Z,27.14
2018-08-18T07:21:29.142Z,27.12
2018-08-18T07:23:34.420Z,27.14
2018-08-18T07:25:49.211Z,27.34
2018-08-18T07:27:59.714Z,27.54
2018-08-18T07:30:11.387Z,27.37
2018-08-18T07:32:25.616Z,27.31
2018-08-18T07:34:29.487Z,27.02
2018-08-18T07:36:39.146Z,27.18
2018-08-18T07:38:51.004Z,26.96
2018-08-18T07:40:55.556Z,27.02
2018-08-18T07:43:04.731Z,27.10
2018-08-18T07:45:13.465Z,27.02
2018-08-18T07:47:24.714Z,27.31
2018-08-18T07:49:31.119Z,27.52
2018-08-18T07:51:35.258Z,27.52
2018-08-18T07:53:55.473Z,27.37
2018-08-18T07:56:00.071Z,27.78
2018-08-18T07:58:11.686Z,27.78
2018-08-18T08:00:23.390Z,27.34
2018-08-18T08:02:31.218Z,27.24
2018-08-18T08:04:40.086Z,27.23
2018-08-18T08:06:46.598Z,27.39
2018-08-18T08:09:07.288Z,27.29
2018-08-18T08:11:14.852Z,27.45
2018-08-18T08:13:25.478Z,27.46
2018-08-18T08:15:35.599Z,27.39
2018-08-18T08:17:46.804Z,27.69
2018-08-18T08:20:00.082Z,27.58
2018-08-18T08:22:13.932Z,27.37
2018-08-18T08:24:25.230Z,27.83
2018-08-18T08:26:40.474Z,28.12
2018-08-18T08:28:47.890Z,28.36
2018-08-18T08:30:57.875Z,28.46
2018-08-18T08:33:09.566Z,28.50
2018-08-18T08:35:17.424Z,28.47
2018-08-18T08:37:24.480Z,28.06
2018-08-18T08:39:30.210Z,27.89
2018-08-18T08:41:35.460Z,28.06
2018-08-18T08:43:41.626Z,28.40
2018-08-18T08:45:49.449Z,28.47
2018-08-18T08:47:58.925Z,27.87
2018-08-18T08:50:05.256Z,27.94
2018-08-18T08:52:13.941Z,28.07
2018-08-18T08:54:22.969Z,28.05
2018-08-18T08:56:34.080Z,27.81
2018-08-18T08:58:42.650Z,28.12
2018-08-18T09:00:49.832Z,28.32
2018-08-18T09:02:59.850Z,28.18
2018-08-18T09:05:15.265Z,27.91
2018-08-18T09:07:23.505Z,28.13
2018-08-18T09:09:30.710Z,27.91
2018-08-18T09:11:36.449Z,28.00
2018-08-18T09:14:11.765Z,27.98
2018-08-18T09:16:18.058Z,28.31
2018-08-18T09:18:27.763Z,28.00
2018-08-18T09:20:36.469Z,27.81
2018-08-18T09:22:52.268Z,28.13
2018-08-18T09:25:10.722Z,28.24
2018-08-18T09:27:15.796Z,28.65
2018-08-18T09:29:23.296Z,28.74
2018-08-18T09:31:27.991Z,28.51
2018-08-18T09:33:32.326Z,28.67
2018-08-18T09:35:54.579Z,28.86
2018-08-18T09:38:04.188Z,28.89
2018-08-18T09:40:10.290Z,28.76
2018-08-18T09:42:17.854Z,28.94
2018-08-18T09:44:26.679Z,28.81
2018-08-18T09:46:31.905Z,28.66
2018-08-18T09:48:37.437Z,28.72
2018-08-18T09:50:42.525Z,28.61
2018-08-18T09:52:47.800Z,28.41
2018-08-18T09:54:52.591Z,28.51
2018-08-18T09:56:56.749Z,28.44
2018-08-18T09:59:05.610Z,28.66
2018-08-18T10:01:16.216Z,28.56
2018-08-18T10:03:21.314Z,28.83
2018-08-18T10:05:26.577Z,28.65
2018-08-18T10:07:31.190Z,28.54
2018-08-18T10:09:35.127Z,28.67
2018-08-18T10:11:41.753Z,28.62
2018-08-18T10:13:45.708Z,28.56
2018-08-18T10:15:49.356Z,28.64
2018-08-18T10:17:53.890Z,28.76
2018-08-18T10:19:57.669Z,28.92
2018-08-18T10:22:10.479Z,28.94
2018-08-18T10:24:20.006Z,29.25
2018-08-18T10:26:24.910Z,29.32
2018-08-18T10:28:28.652Z,29.32
2018-08-18T10:30:32.527Z,29.31
2018-08-18T10:32:40.248Z,29.46
2018-08-18T10:34:43.874Z,29.35
2018-08-18T10:36:55.970Z,29.42
2018-08-18T10:38:59.964Z,29.23
2018-08-18T10:41:05.340Z,29.04
2018-08-18T10:43:14.309Z,29.02
2018-08-18T10:45:21.753Z,28.95
2018-08-18T10:47:27.795Z,28.97
2018-08-18T10:49:47.705Z,28.86
2018-08-18T10:52:03.589Z,28.92
2018-08-18T10:54:07.643Z,29.02
2018-08-18T10:56:15.507Z,28.91
2018-08-18T10:58:30.774Z,29.35
2018-08-18T11:00:35.343Z,29.10
2018-08-18T11:02:44.106Z,29.36
2018-08-18T11:04:48.433Z,29.27
2018-08-18T11:06:52.289Z,29.39
2018-08-18T11:08:56.022Z,29.17
2018-08-18T11:10:59.829Z,29.02
2018-08-18T11:13:05.820Z,29.00
2018-08-18T11:15:13.038Z,29.27
2018-08-18T11:17:18.489Z,29.42
2018-08-18T11:19:22.595Z,29.45
2018-08-18T11:21:33.957Z,29.34
2018-08-18T11:23:37.781Z,29.43
2018-08-18T11:25:51.839Z,29.50
2018-08-18T11:27:57.288Z,29.62
2018-08-18T11:30:06.467Z,29.50
2018-08-18T11:32:10.351Z,29.65
2018-08-18T11:34:16.994Z,29.43
2018-08-18T11:36:20.615Z,29.38
2018-08-18T11:38:25.167Z,29.38
2018-08-18T11:40:29.508Z,29.14
2018-08-18T11:42:33.498Z,29.08
2018-08-18T11:44:38.956Z,29.37
2018-08-18T11:46:50.644Z,29.36
2018-08-18T11:48:58.721Z,29.39
2018-08-18T11:51:08.774Z,29.08
2018-08-18T11:53:14.537Z,29.24
2018-08-18T11:55:20.585Z,29.37
2018-08-18T11:57:24.758Z,29.23
2018-08-18T11:59:29.760Z,29.60
2018-08-18T12:01:37.318Z,29.70
2018-08-18T12:03:41.078Z,29.92
2018-08-18T12:05:50.655Z,29.89
2018-08-18T12:07:59.303Z,30.05
2018-08-18T12:10:06.957Z,30.02
2018-08-18T12:12:11.796Z,29.86
2018-08-18T12:14:17.005Z,31.09
2018-08-18T12:16:22.116Z,31.09
2018-08-18T12:18:28.565Z,32.65
2018-08-18T12:20:32.439Z,33.38
2018-08-18T12:22:36.493Z,33.88
2018-08-18T12:24:43.554Z,34.19
2018-08-18T12:27:01.522Z,34.33
2018-08-18T12:29:12.753Z,34.69
2018-08-18T12:31:20.631Z,34.76
2018-08-18T12:33:24.883Z,35.23
2018-08-18T12:35:33.706Z,35.25
2018-08-18T12:37:41.316Z,35.29
2018-08-18T12:39:45.610Z,34.38
2018-08-18T12:41:50.427Z,32.29
2018-08-18T12:44:01.893Z,32.33
2018-08-18T12:46:17.445Z,33.21
2018-08-18T12:48:23.498Z,35.25
2018-08-18T12:50:31.751Z,35.18
2018-08-18T12:52:44.840Z,35.77
2018-08-18T12:54:49.210Z,35.79
2018-08-18T12:56:55.174Z,36.25
2018-08-18T12:58:59.664Z,36.47
2018-08-18T13:01:05.787Z,35.09
2018-08-18T13:03:12.707Z,35.01
2018-08-18T13:05:31.002Z,33.42
2018-08-18T13:07:39.116Z,35.85
2018-08-18T13:09:47.161Z,36.05
2018-08-18T13:11:59.862Z,36.42
2018-08-18T13:14:09.608Z,34.95
2018-08-18T13:16:17.679Z,35.95
2018-08-18T13:18:23.687Z,36.01
2018-08-18T13:20:27.881Z,36.70
2018-08-18T13:22:32.971Z,36.34
2018-08-18T13:24:37.079Z,36.62
2018-08-18T13:26:41.659Z,36.71
2018-08-18T13:28:51.551Z,36.58
2018-08-18T13:30:56.658Z,35.88
2018-08-18T13:33:01.109Z,35.87
2018-08-18T13:35:06.377Z,36.00
2018-08-18T13:37:15.369Z,36.39
2018-08-18T13:39:29.875Z,35.97
2018-08-18T13:41:35.873Z,34.94
2018-08-18T13:43:46.640Z,34.35
2018-08-18T13:45:50.609Z,34.57
2018-08-18T13:48:00.462Z,34.66
2018-08-18T13:50:09.617Z,34.58
2018-08-18T13:52:18.928Z,34.38
2018-08-18T13:54:25.408Z,34.08
2018-08-18T13:56:32.549Z,33.78
2018-08-18T13:58:39.370Z,33.39
2018-08-18T14:00:44.520Z,33.46
2018-08-18T14:02:48.414Z,33.55
2018-08-18T14:04:54.152Z,33.62
2018-08-18T14:06:59.227Z,33.23
2018-08-18T14:09:03.757Z,32.97
2018-08-18T14:11:09.783Z,32.95
2018-08-18T14:13:18.744Z,33.22
2018-08-18T14:15:24.560Z,33.33
2018-08-18T14:17:28.899Z,33.29
2018-08-18T14:19:32.850Z,33.23
2018-08-18T14:21:38.969Z,33.27
2018-08-18T14:24:48.232Z,33.20
2018-08-18T14:27:02.289Z,33.08
2018-08-18T14:29:09.478Z,32.94
2018-08-18T14:31:14.074Z,33.06
2018-08-18T14:33:20.598Z,32.86
2018-08-18T14:35:24.961Z,32.83
2018-08-18T14:37:29.181Z,32.74
2018-08-18T14:39:38.381Z,32.62
2018-08-18T14:41:43.096Z,32.94
2018-08-18T14:43:47.105Z,32.99
2018-08-18T14:45:55.303Z,32.96
2018-08-18T14:48:04.304Z,32.99
2018-08-18T14:50:22.558Z,33.03
2018-08-18T14:52:26.921Z,32.99
2018-08-18T14:54:32.463Z,33.04
2018-08-18T14:56:36.574Z,33.04
2018-08-18T14:58:43.783Z,33.04
2018-08-18T15:00:48.404Z,33.01
2018-08-18T15:03:24.339Z,33.01
2018-08-18T15:05:28.321Z,33.07
2018-08-18T15:07:34.291Z,33.09
2018-08-18T15:09:46.036Z,33.05
2018-08-18T15:11:50.012Z,33.05
2018-08-18T15:13:54.471Z,33.14
2018-08-18T15:16:02.572Z,33.08
2018-08-18T15:18:12.272Z,33.03
2018-08-18T15:20:17.372Z,33.06
2018-08-18T15:22:21.421Z,33.02
2018-08-18T15:24:26.774Z,33.01
2018-08-18T15:26:30.610Z,32.91
2018-08-18T15:28:34.618Z,32.91
2018-08-18T15:30:39.928Z,32.78
2018-08-18T15:32:44.401Z,32.60
2018-08-18T15:34:48.302Z,32.47
2018-08-18T15:36:52.348Z,32.49
2018-08-18T15:38:56.095Z,32.66
2018-08-18T15:41:00.440Z,32.68
2018-08-18T15:43:07.597Z,32.67
2018-08-18T15:45:16.852Z,32.67
2018-08-18T15:47:21.273Z,32.71
2018-08-18T15:49:25.582Z,32.71
2018-08-18T15:51:38.579Z,32.70
2018-08-18T15:53:54.531Z,32.68
2018-08-18T15:56:01.578Z,32.71
2018-08-18T15:58:07.387Z,32.77
2018-08-18T16:00:26.507Z,32.82
2018-08-18T16:02:30.601Z,32.80
2018-08-18T16:04:34.515Z,32.83
2018-08-18T16:06:38.201Z,32.79
2018-08-18T16:08:42.470Z,32.65
2018-08-18T16:10:49.090Z,32.64
2018-08-18T16:12:52.834Z,32.46
2018-08-18T16:14:57.185Z,32.55
2018-08-18T16:17:01.824Z,32.60
2018-08-18T16:19:15.025Z,32.64
2018-08-18T16:21:23.695Z,32.61
2018-08-18T16:23:27.585Z,32.60
2018-08-18T16:25:37.957Z,32.64
2018-08-18T16:27:42.347Z,32.59
2018-08-18T16:29:46.518Z,32.58
2018-08-18T16:31:50.224Z,32.45
2018-08-18T16:33:55.020Z,32.29
2018-08-18T16:35:59.242Z,32.15
2018-08-18T16:38:03.819Z,32.03
2018-08-18T16:40:09.249Z,31.94
2018-08-18T16:42:16.648Z,31.99
2018-08-18T16:44:22.164Z,32.07
2018-08-18T16:46:32.209Z,32.05
2018-08-18T16:48:36.420Z,32.07
2018-08-18T16:50:41.585Z,32.06
2018-08-18T16:52:45.787Z,31.98
2018-08-18T16:54:49.698Z,31.99
2018-08-18T16:56:53.493Z,32.02
2018-08-18T16:58:59.998Z,31.98
2018-08-18T17:01:04.370Z,31.92
2018-08-18T17:03:08.181Z,31.85
2018-08-18T17:05:15.320Z,31.88
2018-08-18T17:07:28.432Z,31.86
2018-08-18T17:09:43.017Z,31.84
2018-08-18T17:11:47.460Z,31.78
2018-08-18T17:13:54.354Z,31.76
2018-08-18T17:16:01.795Z,31.65
2018-08-18T17:18:07.314Z,31.66
2018-08-18T17:20:12.814Z,31.54
2018-08-18T17:22:21.936Z,31.56
2018-08-18T17:24:28.637Z,31.52
2018-08-18T17:26:36.273Z,31.48
2018-08-18T17:28:49.353Z,31.34
2018-08-18T17:31:03.292Z,31.30
2018-08-18T17:33:30.498Z,31.30
2018-08-18T17:38:06.088Z,31.20
2018-08-18T17:40:11.923Z,31.15
2018-08-18T17:42:17.338Z,31.10
2018-08-18T17:44:21.540Z,31.04
2018-08-18T17:46:25.501Z,30.88
2018-08-18T17:48:30.500Z,30.79
2018-08-18T17:50:35.427Z,30.73
2018-08-18T17:52:39.411Z,30.80
2018-08-18T17:54:44.687Z,30.84
2018-08-18T17:56:49.705Z,30.79
2018-08-18T17:59:05.314Z,30.79
2018-08-18T18:01:15.059Z,30.67
2018-08-18T18:03:24.960Z,30.61
2018-08-18T18:05:32.701Z,30.39
2018-08-18T18:07:36.653Z,30.50
2018-08-18T18:09:42.036Z,30.22
2018-08-18T18:11:50.440Z,30.28
2018-08-18T18:13:57.461Z,30.09
2018-08-18T18:16:12.309Z,30.00
2018-08-18T18:18:22.467Z,30.07
2018-08-18T18:20:30.906Z,30.19
2018-08-18T18:22:40.355Z,30.12
2018-08-18T18:24:44.447Z,30.10
2018-08-18T18:26:50.890Z,29.93
2018-08-18T18:28:56.535Z,30.04
2018-08-18T18:31:03.247Z,30.06
2018-08-18T18:33:12.902Z,29.98
2018-08-18T18:35:21.515Z,29.97
2018-08-18T18:37:25.783Z,29.92
2018-08-18T18:39:33.531Z,29.93
2018-08-18T18:41:38.874Z,29.83
2018-08-18T18:43:50.213Z,29.70
2018-08-18T18:45:54.341Z,29.70
2018-08-18T18:47:59.873Z,29.59
2018-08-18T18:50:08.533Z,29.34
2018-08-18T18:52:16.791Z,29.46
2018-08-18T18:54:24.178Z,29.57
2018-08-18T18:56:28.201Z,29.55
2018-08-18T18:58:32.188Z,29.05
2018-08-18T19:00:38.111Z,28.92
2018-08-18T19:02:43.884Z,29.06
2018-08-18T19:04:48.035Z,29.13
2018-08-18T19:07:00.431Z,29.31
2018-08-18T19:09:06.773Z,29.39
2018-08-18T19:11:13.279Z,29.32
2018-08-18T19:13:22.264Z,29.32
2018-08-18T19:15:29.004Z,29.34
2018-08-18T19:17:32.910Z,29.19
2018-08-18T19:19:39.150Z,29.14
2018-08-18T19:21:45.485Z,29.22
2018-08-18T19:23:50.188Z,29.06
2018-08-18T19:25:54.961Z,29.00
2018-08-18T19:28:00.016Z,29.00
2018-08-18T19:30:04.756Z,28.92
2018-08-18T19:32:12.072Z,29.07
2018-08-18T19:34:19.347Z,28.90
2018-08-18T19:36:25.756Z,28.97
2018-08-18T19:38:30.685Z,28.91
2018-08-18T19:40:38.638Z,28.92
2018-08-18T19:42:46.871Z,28.85
2018-08-18T19:44:54.187Z,28.84
2018-08-18T19:47:00.351Z,28.61
2018-08-18T19:49:06.779Z,28.65
2018-08-18T19:51:13.475Z,28.74
2018-08-18T19:53:22.904Z,28.64
2018-08-18T19:55:29.218Z,28.68
2018-08-18T19:57:37.845Z,28.75
2018-08-18T19:59:52.155Z,28.48
2018-08-18T20:01:57.152Z,28.62
2018-08-18T20:04:13.686Z,28.54
2018-08-18T20:06:24.717Z,28.58
2018-08-18T20:08:33.072Z,28.62
2018-08-18T20:10:46.212Z,28.49
2018-08-18T20:12:54.299Z,28.32
2018-08-18T20:15:06.132Z,28.19
2018-08-18T20:17:13.018Z,28.21
2018-08-18T20:19:29.737Z,28.15
2018-08-18T20:21:35.952Z,28.45
2018-08-18T20:23:44.338Z,28.53
2018-08-18T20:25:50.521Z,28.39
2018-08-18T20:28:00.088Z,28.51
2018-08-18T20:30:07.540Z,28.12
2018-08-18T20:32:13.071Z,27.78
2018-08-18T20:34:19.343Z,28.04
2018-08-18T20:36:23.684Z,28.23
2018-08-18T20:38:33.865Z,28.18
2018-08-18T20:40:39.066Z,28.34
2018-08-18T20:42:44.720Z,28.39
2018-08-18T20:47:04.828Z,28.44
2018-08-18T20:49:11.727Z,28.41
2018-08-18T20:51:21.032Z,28.35
2018-08-18T20:53:26.764Z,28.12
2018-08-18T20:55:31.191Z,28.01
2018-08-18T20:57:36.408Z,27.73
2018-08-18T20:59:41.952Z,27.75
2018-08-18T21:01:46.256Z,27.71
2018-08-18T21:03:51.400Z,27.82
2018-08-18T21:06:00.485Z,27.09
2018-08-18T21:08:15.118Z,27.23
2018-08-18T21:10:19.211Z,27.28
2018-08-18T21:12:31.240Z,27.71
2018-08-18T21:14:35.589Z,27.89
2018-08-18T21:16:39.841Z,27.92
2018-08-18T21:18:45.178Z,27.97
2018-08-18T21:20:50.292Z,27.96
2018-08-18T21:22:54.542Z,27.45
2018-08-18T21:25:01.487Z,27.34
2018-08-18T21:27:11.683Z,27.48
2018-08-18T21:29:16.300Z,27.25
2018-08-18T21:31:26.019Z,27.51
2018-08-18T21:33:29.820Z,27.45
2018-08-18T21:35:35.596Z,27.43
2018-08-18T21:37:41.056Z,27.61
2018-08-18T21:39:45.526Z,27.53
2018-08-18T21:41:50.012Z,27.52
2018-08-18T21:43:53.797Z,27.46
2018-08-18T21:45:59.836Z,27.17
2018-08-18T21:48:09.722Z,27.20
2018-08-18T21:50:17.407Z,27.18
2018-08-18T21:52:24.665Z,26.95
2018-08-18T21:54:29.310Z,27.22
2018-08-18T21:56:37.009Z,26.96
2018-08-18T21:58:41.871Z,27.01
2018-08-18T22:00:51.164Z,27.03
2018-08-18T22:02:57.201Z,27.19
2018-08-18T22:05:02.128Z,27.29
2018-08-18T22:07:08.756Z,27.20
2018-08-18T22:09:22.852Z,27.19
2018-08-18T22:11:28.248Z,27.22
2018-08-18T22:13:42.399Z,27.22
2018-08-18T22:15:48.699Z,27.48
2018-08-18T22:17:54.783Z,27.55
2018-08-18T22:20:02.039Z,27.60
2018-08-18T22:22:07.707Z,27.51
2018-08-18T22:24:18.722Z,27.36
2018-08-18T22:26:27.615Z,27.53
2018-08-18T22:28:31.814Z,27.49
2018-08-18T22:30:36.547Z,27.52
2018-08-18T22:32:44.669Z,27.56
2018-08-18T22:34:49.972Z,27.41
2018-08-18T22:37:10.721Z,26.89
2018-08-18T22:39:24.233Z,26.76
2018-08-18T22:41:32.683Z,27.32
2018-08-18T22:43:37.045Z,27.58
2018-08-18T22:45:42.081Z,27.63
2018-08-18T22:47:46.475Z,27.45
2018-08-18T22:49:52.764Z,27.40
2018-08-18T22:51:57.438Z,27.44
2018-08-18T22:54:02.306Z,27.60
2018-08-18T22:56:06.852Z,27.59
2018-08-18T22:58:12.508Z,27.71
2018-08-18T23:00:19.161Z,27.76
2018-08-18T23:02:27.893Z,27.73
2018-08-18T23:04:38.132Z,27.77
2018-08-18T23:06:42.866Z,27.75
2018-08-18T23:08:59.036Z,27.77
2018-08-18T23:11:04.334Z,27.56
2018-08-18T23:13:15.475Z,27.22
2018-08-18T23:15:36.122Z,27.46
2018-08-18T23:17:44.837Z,27.64
2018-08-18T23:19:50.482Z,27.69
2018-08-18T23:21:57.532Z,27.59
2018-08-18T23:24:19.662Z,27.45
2018-08-18T23:26:34.967Z,27.44
2018-08-18T23:28:40.511Z,27.20
2018-08-18T23:30:45.892Z,27.14
2018-08-18T23:32:54.966Z,27.14
2018-08-18T23:35:08.391Z,27.27
2018-08-18T23:37:26.914Z,27.26
2018-08-18T23:39:37.567Z,27.10
2018-08-18T23:41:50.853Z,27.05
2018-08-18T23:44:00.395Z,27.09
2018-08-18T23:46:09.454Z,27.00
2018-08-18T23:48:15.887Z,27.09
2018-08-18T23:50:21.057Z,27.22
2018-08-18T23:52:25.532Z,27.39
2018-08-18T23:54:33.027Z,27.22
2018-08-18T23:56:38.626Z,27.31
2018-08-18T23:58:43.500Z,27.35
